createdAt,value
2022-09-04T00:00:52.699Z,17.20
2022-09-04T00:01:52.825Z,17.21
2022-09-04T00:02:54.932Z,17.18
2022-09-04T00:03:53.173Z,17.18
2022-09-04T00:04:53.329Z,17.15
2022-09-04T00:05:53.359Z,17.17
2022-09-04T00:06:53.515Z,17.17
2022-09-04T00:07:53.647Z,17.14
2022-09-04T00:08:53.803Z,17.15
2022-09-04T00:09:53.934Z,17.15
2022-09-04T00:10:54.061Z,17.12
2022-09-04T00:11:54.172Z,17.17
2022-09-04T00:12:54.312Z,17.22
2022-09-04T00:13:54.429Z,17.24
2022-09-04T00:14:54.562Z,17.30
2022-09-04T00:15:54.673Z,17.35
2022-09-04T00:16:54.897Z,17.39
2022-09-04T00:17:54.930Z,17.40
2022-09-04T00:18:55.058Z,17.38
2022-09-04T00:19:55.202Z,17.35
2022-09-04T00:20:55.325Z,17.30
2022-09-04T00:21:55.444Z,17.30
2022-09-04T00:22:55.660Z,17.28
2022-09-04T00:23:55.694Z,17.28
2022-09-04T00:24:55.815Z,17.27
2022-09-04T00:25:55.946Z,17.22
2022-09-04T00:26:56.074Z,17.17
2022-09-04T00:27:56.222Z,17.12
2022-09-04T00:28:56.301Z,17.12
2022-09-04T00:29:56.417Z,17.10
2022-09-04T00:30:56.585Z,17.10
2022-09-04T00:31:56.664Z,17.12
2022-09-04T00:32:56.831Z,17.12
2022-09-04T00:33:56.976Z,17.14
2022-09-04T00:34:57.101Z,17.15
2022-09-04T00:35:57.236Z,17.12
2022-09-04T00:36:57.380Z,17.07
2022-09-04T00:37:57.555Z,17.05
2022-09-04T00:38:57.662Z,17.05
2022-09-04T00:39:57.786Z,17.03
2022-09-04T00:40:57.924Z,17.00
2022-09-04T00:41:58.054Z,16.98
2022-09-04T00:42:58.194Z,16.92
2022-09-04T00:43:58.325Z,16.91
2022-09-04T00:44:58.482Z,16.88
2022-09-04T00:45:58.719Z,16.87
2022-09-04T00:46:58.800Z,16.85
2022-09-04T00:47:58.920Z,16.82
2022-09-04T00:48:59.072Z,16.78
2022-09-04T00:49:59.161Z,16.77
2022-09-04T00:50:59.293Z,16.77
2022-09-04T00:51:59.416Z,16.77
2022-09-04T00:52:59.580Z,16.75
2022-09-04T00:53:59.734Z,16.78
2022-09-04T00:54:59.833Z,16.78
2022-09-04T00:55:59.952Z,16.82
2022-09-04T00:57:00.093Z,16.85
2022-09-04T00:58:00.222Z,16.87
2022-09-04T00:59:00.410Z,16.88
2022-09-04T01:00:00.520Z,16.90
2022-09-04T01:01:00.773Z,16.90
2022-09-04T01:02:00.818Z,16.91
2022-09-04T01:03:00.849Z,16.91
2022-09-04T01:04:00.969Z,16.92
2022-09-04T01:05:01.142Z,16.96
2022-09-04T01:06:01.243Z,16.98
2022-09-04T01:07:01.477Z,16.99
2022-09-04T01:08:01.493Z,16.99
2022-09-04T01:09:01.617Z,17.03
2022-09-04T01:10:01.751Z,17.03
2022-09-04T01:11:01.883Z,17.02
2022-09-04T01:12:02.003Z,17.02
2022-09-04T01:13:02.705Z,16.99
2022-09-04T01:14:02.251Z,17.02
2022-09-04T01:15:02.423Z,17.00
2022-09-04T01:16:02.509Z,16.99
2022-09-04T01:17:02.610Z,17.00
2022-09-04T01:18:02.744Z,17.03
2022-09-04T01:19:02.900Z,17.05
2022-09-04T01:20:03.052Z,17.05
2022-09-04T01:21:03.192Z,17.06
2022-09-04T01:22:03.302Z,17.10
2022-09-04T01:23:03.431Z,17.10
2022-09-04T01:24:03.574Z,17.12
2022-09-04T01:25:03.744Z,17.12
2022-09-04T01:26:03.845Z,17.12
2022-09-04T01:27:03.999Z,17.14
2022-09-04T01:28:04.121Z,17.14
2022-09-04T01:29:04.433Z,17.12
2022-09-04T01:30:04.419Z,17.10
2022-09-04T01:31:04.492Z,17.12
2022-09-04T01:32:04.670Z,17.10
2022-09-04T01:33:04.794Z,17.12
2022-09-04T01:34:04.900Z,17.09
2022-09-04T01:35:05.048Z,17.10
2022-09-04T01:36:05.131Z,17.10
2022-09-04T01:37:05.262Z,17.12
2022-09-04T01:38:05.381Z,17.12
2022-09-04T01:39:05.508Z,17.14
2022-09-04T01:40:05.743Z,17.12
2022-09-04T01:41:05.818Z,17.14
2022-09-04T01:42:12.964Z,17.14
2022-09-04T01:43:06.030Z,17.12
2022-09-04T01:44:06.181Z,17.10
2022-09-04T01:45:06.911Z,17.09
2022-09-04T01:46:06.544Z,17.10
2022-09-04T01:47:06.607Z,17.09
2022-09-04T01:48:06.731Z,17.09
2022-09-04T01:49:06.849Z,17.10
2022-09-04T01:50:07.002Z,17.10
2022-09-04T01:51:07.129Z,17.07
2022-09-04T01:52:07.272Z,17.06
2022-09-04T01:53:07.423Z,17.05
2022-09-04T01:54:07.552Z,17.07
2022-09-04T01:55:07.702Z,17.07
2022-09-04T01:56:07.843Z,17.10
2022-09-04T01:57:07.963Z,17.07
2022-09-04T01:58:08.091Z,17.10
2022-09-04T01:59:08.218Z,17.10
2022-09-04T02:00:08.373Z,17.09
2022-09-04T02:01:08.530Z,17.07
2022-09-04T02:02:08.595Z,17.05
2022-09-04T02:03:08.742Z,17.03
2022-09-04T02:04:08.872Z,16.99
2022-09-04T02:05:09.023Z,16.92
2022-09-04T02:06:09.178Z,16.88
2022-09-04T02:07:09.331Z,16.84
2022-09-04T02:08:09.512Z,16.80
2022-09-04T02:09:09.642Z,16.77
2022-09-04T02:10:09.783Z,16.75
2022-09-04T02:11:09.893Z,16.72
2022-09-04T02:12:09.995Z,16.70
2022-09-04T02:13:10.121Z,16.67
2022-09-04T02:14:10.263Z,16.69
2022-09-04T02:15:10.388Z,16.67
2022-09-04T02:16:10.620Z,16.66
2022-09-04T02:17:10.629Z,16.60
2022-09-04T02:18:10.772Z,16.57
2022-09-04T02:19:10.920Z,16.54
2022-09-04T02:20:11.053Z,16.51
2022-09-04T02:21:11.191Z,16.50
2022-09-04T02:22:11.362Z,16.47
2022-09-04T02:23:11.489Z,16.48
2022-09-04T02:24:11.609Z,16.48
2022-09-04T02:25:11.737Z,16.51
2022-09-04T02:26:11.882Z,16.50
2022-09-04T02:27:11.981Z,16.47
2022-09-04T02:28:12.112Z,16.47
2022-09-04T02:29:12.232Z,16.44
2022-09-04T02:30:12.362Z,16.44
2022-09-04T02:31:12.603Z,16.44
2022-09-04T02:32:12.659Z,16.45
2022-09-04T02:33:12.781Z,16.50
2022-09-04T02:34:12.922Z,16.48
2022-09-04T02:35:13.050Z,16.50
2022-09-04T02:36:13.220Z,16.48
2022-09-04T02:37:13.301Z,16.45
2022-09-04T02:38:13.430Z,16.42
2022-09-04T02:39:13.563Z,16.41
2022-09-04T02:40:13.690Z,16.36
2022-09-04T02:41:13.800Z,16.34
2022-09-04T02:42:13.966Z,16.33
2022-09-04T02:43:14.050Z,16.33
2022-09-04T02:44:14.158Z,16.32
2022-09-04T02:45:14.281Z,16.27
2022-09-04T02:46:14.487Z,16.27
2022-09-04T02:47:14.671Z,16.29
2022-09-04T02:48:14.689Z,16.29
2022-09-04T02:49:14.810Z,16.27
2022-09-04T02:50:14.950Z,16.26
2022-09-04T02:51:15.119Z,16.23
2022-09-04T02:52:15.258Z,16.18
2022-09-04T02:53:18.280Z,16.17
2022-09-04T02:54:15.559Z,16.16
2022-09-04T02:55:15.739Z,16.11
2022-09-04T02:56:15.896Z,16.11
2022-09-04T02:57:16.063Z,16.14
2022-09-04T02:58:16.167Z,16.13
2022-09-04T02:59:16.319Z,16.16
2022-09-04T03:00:18.222Z,16.17
2022-09-04T03:01:17.589Z,16.14
2022-09-04T03:02:16.754Z,16.16
2022-09-04T03:03:16.819Z,16.16
2022-09-04T03:04:16.961Z,16.14
2022-09-04T03:05:17.081Z,16.13
2022-09-04T03:06:17.209Z,16.08
2022-09-04T03:07:17.362Z,16.13
2022-09-04T03:08:17.514Z,16.11
2022-09-04T03:09:17.550Z,16.11
2022-09-04T03:10:17.680Z,16.08
2022-09-04T03:11:17.809Z,16.06
2022-09-04T03:12:17.942Z,16.06
2022-09-04T03:13:18.090Z,16.01
2022-09-04T03:14:18.189Z,15.96
2022-09-04T03:15:18.329Z,15.91
2022-09-04T03:16:18.523Z,15.88
2022-09-04T03:17:18.572Z,15.85
2022-09-04T03:18:18.764Z,15.81
2022-09-04T03:19:18.812Z,15.78
2022-09-04T03:20:18.949Z,15.74
2022-09-04T03:21:19.075Z,15.71
2022-09-04T03:22:19.204Z,15.66
2022-09-04T03:23:19.330Z,15.59
2022-09-04T03:24:19.479Z,15.56
2022-09-04T03:25:19.572Z,15.56
2022-09-04T03:26:19.701Z,15.55
2022-09-04T03:27:19.832Z,15.55
2022-09-04T03:28:20.025Z,15.55
2022-09-04T03:29:20.107Z,15.55
2022-09-04T03:30:20.241Z,15.53
2022-09-04T03:31:20.417Z,15.53
2022-09-04T03:32:20.488Z,15.49
2022-09-04T03:33:20.619Z,15.40
2022-09-04T03:34:20.768Z,15.35
2022-09-04T03:35:20.861Z,15.30
2022-09-04T03:36:21.019Z,15.25
2022-09-04T03:37:21.147Z,15.19
2022-09-04T03:38:21.281Z,15.16
2022-09-04T03:39:21.468Z,15.12
2022-09-04T03:40:21.581Z,15.09
2022-09-04T03:41:21.700Z,15.07
2022-09-04T03:42:21.842Z,15.04
2022-09-04T03:43:21.969Z,15.01
2022-09-04T03:44:22.108Z,14.95
2022-09-04T03:45:22.288Z,14.95
2022-09-04T03:46:22.396Z,14.90
2022-09-04T03:47:22.457Z,14.86
2022-09-04T03:48:22.625Z,14.85
2022-09-04T03:49:22.696Z,14.82
2022-09-04T03:50:22.833Z,14.80
2022-09-04T03:51:22.966Z,14.78
2022-09-04T03:52:23.102Z,14.75
2022-09-04T03:53:23.211Z,14.75
2022-09-04T03:54:23.394Z,14.75
2022-09-04T03:55:23.462Z,14.74
2022-09-04T03:56:23.589Z,14.74
2022-09-04T03:57:23.719Z,14.74
2022-09-04T03:58:23.875Z,14.69
2022-09-04T03:59:24.007Z,14.69
2022-09-04T04:00:24.150Z,14.72
2022-09-04T04:01:25.229Z,14.72
2022-09-04T04:02:24.522Z,14.71
2022-09-04T04:03:24.647Z,14.72
2022-09-04T04:04:24.746Z,14.74
2022-09-04T04:05:24.914Z,14.74
2022-09-04T04:06:25.007Z,14.74
2022-09-04T04:07:25.159Z,14.74
2022-09-04T04:08:25.420Z,14.78
2022-09-04T04:09:25.438Z,14.79
2022-09-04T04:10:25.600Z,14.83
2022-09-04T04:11:25.739Z,14.85
2022-09-04T04:12:25.867Z,14.85
2022-09-04T04:13:25.987Z,14.83
2022-09-04T04:14:26.117Z,14.80
2022-09-04T04:15:26.268Z,14.83
2022-09-04T04:16:26.415Z,14.79
2022-09-04T04:17:26.475Z,14.80
2022-09-04T04:18:26.608Z,14.79
2022-09-04T04:19:26.731Z,14.82
2022-09-04T04:20:26.867Z,14.85
2022-09-04T04:21:26.996Z,14.87
2022-09-04T04:22:27.139Z,14.91
2022-09-04T04:23:27.257Z,14.95
2022-09-04T04:24:27.388Z,14.98
2022-09-04T04:25:27.515Z,14.95
2022-09-04T04:26:27.677Z,14.91
2022-09-04T04:27:27.808Z,14.90
2022-09-04T04:28:27.987Z,14.91
2022-09-04T04:29:28.116Z,14.95
2022-09-04T04:30:28.255Z,14.97
2022-09-04T04:31:28.492Z,14.98
2022-09-04T04:32:28.497Z,15.01
2022-09-04T04:33:28.617Z,14.98
2022-09-04T04:34:28.756Z,15.00
2022-09-04T04:35:28.877Z,14.98
2022-09-04T04:36:29.019Z,15.00
2022-09-04T04:37:29.106Z,14.98
2022-09-04T04:38:29.236Z,14.97
2022-09-04T04:39:30.420Z,14.93
2022-09-04T04:40:29.527Z,14.91
2022-09-04T04:41:29.667Z,14.90
2022-09-04T04:42:29.737Z,14.87
2022-09-04T04:43:29.865Z,14.85
2022-09-04T04:44:30.034Z,14.86
2022-09-04T04:45:30.172Z,14.91
2022-09-04T04:46:30.341Z,14.91
2022-09-04T04:47:30.478Z,14.91
2022-09-04T04:48:30.619Z,14.94
2022-09-04T04:49:30.727Z,14.94
2022-09-04T04:50:30.857Z,14.94
2022-09-04T04:51:30.998Z,14.93
2022-09-04T04:52:31.139Z,14.93
2022-09-04T04:53:31.237Z,14.90
2022-09-04T04:54:31.385Z,14.86
2022-09-04T04:55:31.474Z,14.85
2022-09-04T04:56:31.655Z,14.83
2022-09-04T04:57:31.728Z,14.75
2022-09-04T04:58:31.878Z,14.71
2022-09-04T04:59:31.975Z,14.67
2022-09-04T05:00:32.117Z,14.64
2022-09-04T05:01:32.337Z,14.63
2022-09-04T05:02:32.513Z,14.61
2022-09-04T05:03:32.549Z,14.61
2022-09-04T05:04:32.667Z,14.66
2022-09-04T05:05:32.795Z,14.66
2022-09-04T05:06:32.937Z,14.72
2022-09-04T05:07:33.064Z,14.74
2022-09-04T05:08:33.216Z,14.78
2022-09-04T05:09:33.312Z,14.80
2022-09-04T05:10:33.453Z,14.85
2022-09-04T05:11:33.584Z,14.87
2022-09-04T05:12:33.723Z,14.93
2022-09-04T05:13:33.851Z,14.94
2022-09-04T05:14:33.965Z,14.97
2022-09-04T05:15:35.983Z,14.98
2022-09-04T05:16:35.242Z,15.01
2022-09-04T05:17:34.311Z,14.97
2022-09-04T05:18:34.485Z,14.94
2022-09-04T05:19:34.566Z,14.93
2022-09-04T05:20:34.716Z,14.90
2022-09-04T05:21:34.813Z,14.93
2022-09-04T05:22:34.956Z,14.91
2022-09-04T05:23:35.098Z,14.93
2022-09-04T05:24:35.244Z,14.91
2022-09-04T05:25:35.340Z,14.93
2022-09-04T05:26:35.478Z,14.95
2022-09-04T05:27:35.614Z,14.95
2022-09-04T05:28:37.705Z,14.93
2022-09-04T05:29:35.914Z,14.94
2022-09-04T05:30:36.006Z,14.97
2022-09-04T05:31:37.724Z,14.97
2022-09-04T05:32:36.225Z,14.97
2022-09-04T05:33:36.374Z,15.00
2022-09-04T05:34:36.551Z,14.98
2022-09-04T05:35:36.621Z,15.01
2022-09-04T05:36:36.796Z,15.01
2022-09-04T05:37:36.883Z,15.00
2022-09-04T05:38:37.042Z,15.04
2022-09-04T05:39:37.165Z,15.04
2022-09-04T05:40:37.276Z,15.09
2022-09-04T05:41:37.355Z,15.12
2022-09-04T05:42:37.497Z,15.15
2022-09-04T05:43:37.642Z,15.19
2022-09-04T05:44:37.826Z,15.20
2022-09-04T05:45:37.904Z,15.23
2022-09-04T05:46:38.099Z,15.27
2022-09-04T05:47:38.154Z,15.27
2022-09-04T05:48:38.304Z,15.31
2022-09-04T05:49:38.468Z,15.35
2022-09-04T05:50:38.552Z,15.43
2022-09-04T05:51:38.663Z,15.51
2022-09-04T05:52:38.813Z,15.58
2022-09-04T05:53:38.932Z,15.66
2022-09-04T05:54:39.063Z,15.71
2022-09-04T05:55:39.192Z,15.76
2022-09-04T05:56:39.293Z,15.81
2022-09-04T05:57:39.405Z,15.86
2022-09-04T05:58:39.511Z,15.91
2022-09-04T05:59:39.664Z,15.95
2022-09-04T06:00:39.825Z,15.98
2022-09-04T06:01:40.057Z,16.04
2022-09-04T06:02:40.113Z,16.06
2022-09-04T06:03:40.182Z,16.07
2022-09-04T06:04:40.325Z,16.10
2022-09-04T06:05:40.681Z,16.14
2022-09-04T06:06:40.562Z,16.18
2022-09-04T06:07:40.715Z,16.25
2022-09-04T06:08:40.836Z,16.27
2022-09-04T06:09:40.952Z,16.32
2022-09-04T06:10:41.215Z,16.37
2022-09-04T06:11:41.202Z,16.42
2022-09-04T06:12:41.302Z,16.47
2022-09-04T06:13:41.473Z,16.51
2022-09-04T06:14:41.574Z,16.59
2022-09-04T06:15:41.727Z,16.63
2022-09-04T06:16:41.813Z,16.65
2022-09-04T06:17:41.913Z,16.69
2022-09-04T06:18:42.044Z,16.70
2022-09-04T06:19:42.140Z,16.75
2022-09-04T06:20:42.270Z,16.80
2022-09-04T06:21:42.382Z,16.84
2022-09-04T06:22:42.495Z,16.85
2022-09-04T06:23:42.595Z,16.90
2022-09-04T06:24:42.675Z,16.95
2022-09-04T06:25:42.822Z,16.96
2022-09-04T06:26:42.963Z,16.99
2022-09-04T06:27:43.065Z,17.03
2022-09-04T06:28:43.164Z,17.05
2022-09-04T06:29:43.297Z,17.07
2022-09-04T06:30:43.384Z,17.09
2022-09-04T06:31:43.538Z,17.12
2022-09-04T06:32:43.612Z,17.14
2022-09-04T06:33:43.744Z,17.15
2022-09-04T06:34:43.841Z,17.17
2022-09-04T06:35:44.006Z,17.18
2022-09-04T06:36:44.112Z,17.21
2022-09-04T06:37:44.283Z,17.24
2022-09-04T06:38:44.363Z,17.27
2022-09-04T06:39:44.577Z,17.32
2022-09-04T06:40:44.654Z,17.36
2022-09-04T06:41:44.785Z,17.42
2022-09-04T06:42:44.872Z,17.47
2022-09-04T06:43:45.043Z,17.53
2022-09-04T06:44:45.142Z,17.53
2022-09-04T06:45:45.279Z,17.54
2022-09-04T06:46:45.407Z,17.58
2022-09-04T06:47:45.493Z,17.62
2022-09-04T06:48:45.594Z,17.65
2022-09-04T06:49:45.750Z,17.65
2022-09-04T06:50:45.834Z,17.68
2022-09-04T06:51:46.034Z,17.70
2022-09-04T06:52:46.099Z,17.73
2022-09-04T06:53:46.237Z,17.76
2022-09-04T06:54:46.301Z,17.81
2022-09-04T06:55:46.442Z,17.83
2022-09-04T06:56:46.615Z,17.87
2022-09-04T06:57:46.714Z,17.94
2022-09-04T06:58:46.801Z,17.99
2022-09-04T06:59:46.954Z,18.04
2022-09-04T07:00:47.115Z,18.10
2022-09-04T07:01:47.309Z,18.19
2022-09-04T07:02:47.387Z,18.26
2022-09-04T07:03:47.442Z,18.32
2022-09-04T07:04:47.536Z,18.39
2022-09-04T07:05:47.684Z,18.49
2022-09-04T07:06:47.783Z,18.53
2022-09-04T07:07:47.907Z,18.57
2022-09-04T07:08:47.986Z,18.62
2022-09-04T07:09:48.131Z,18.69
2022-09-04T07:10:48.271Z,18.72
2022-09-04T07:11:48.394Z,18.76
2022-09-04T07:12:48.503Z,18.82
2022-09-04T07:13:48.642Z,18.86
2022-09-04T07:14:48.785Z,18.89
2022-09-04T07:15:48.972Z,18.89
2022-09-04T07:16:49.042Z,18.94
2022-09-04T07:17:49.203Z,18.99
2022-09-04T07:18:49.285Z,19.05
2022-09-04T07:19:49.424Z,19.09
2022-09-04T07:20:51.511Z,19.12
2022-09-04T07:21:49.693Z,19.16
2022-09-04T07:22:49.813Z,19.16
2022-09-04T07:23:49.935Z,19.20
2022-09-04T07:24:50.019Z,19.23
2022-09-04T07:25:50.159Z,19.31
2022-09-04T07:26:50.293Z,19.40
2022-09-04T07:27:50.449Z,19.46
2022-09-04T07:28:50.552Z,19.50
2022-09-04T07:29:50.692Z,19.57
2022-09-04T07:30:50.833Z,19.60
2022-09-04T07:31:51.023Z,19.64
2022-09-04T07:32:51.101Z,19.71
2022-09-04T07:33:51.252Z,19.78
2022-09-04T07:34:51.354Z,19.85
2022-09-04T07:35:51.495Z,19.92
2022-09-04T07:36:51.625Z,20.01
2022-09-04T07:37:51.781Z,20.04
2022-09-04T07:38:51.875Z,20.12
2022-09-04T07:39:52.036Z,20.15
2022-09-04T07:40:52.101Z,20.20
2022-09-04T07:42:52.398Z,20.30
2022-09-04T07:43:54.968Z,20.25
2022-09-04T07:44:52.598Z,20.25
2022-09-04T07:45:52.752Z,20.26
2022-09-04T07:46:52.940Z,20.31
2022-09-04T07:47:53.007Z,20.35
2022-09-04T07:48:53.150Z,20.35
2022-09-04T07:49:53.238Z,20.35
2022-09-04T07:50:53.379Z,20.34
2022-09-04T07:51:54.488Z,20.38
2022-09-04T07:52:53.606Z,20.41
2022-09-04T07:53:53.746Z,20.48
2022-09-04T07:54:53.887Z,20.57
2022-09-04T07:55:54.020Z,20.63
2022-09-04T07:56:54.156Z,20.71
2022-09-04T07:57:54.275Z,20.75
2022-09-04T07:58:54.484Z,20.82
2022-09-04T07:59:54.568Z,20.90
2022-09-04T08:00:54.679Z,21.05
2022-09-04T08:01:54.853Z,21.00
2022-09-04T08:02:54.928Z,21.01
2022-09-04T08:03:55.069Z,21.08
2022-09-04T08:04:55.240Z,21.18
2022-09-04T08:05:55.323Z,21.31
2022-09-04T08:06:55.466Z,21.46
2022-09-04T08:07:55.601Z,21.53
2022-09-04T08:08:55.715Z,21.58
2022-09-04T08:09:55.929Z,21.67
2022-09-04T08:10:56.002Z,21.75
2022-09-04T08:11:56.098Z,21.81
2022-09-04T08:12:56.295Z,21.77
2022-09-04T08:13:56.356Z,21.85
2022-09-04T08:14:56.482Z,21.99
2022-09-04T08:15:56.635Z,22.09
2022-09-04T08:16:56.683Z,22.12
2022-09-04T08:17:56.809Z,22.27
2022-09-04T08:18:56.958Z,22.49
2022-09-04T08:19:57.110Z,22.70
2022-09-04T08:20:57.217Z,22.85
2022-09-04T08:21:57.349Z,23.07
2022-09-04T08:22:57.491Z,23.25
2022-09-04T08:23:57.619Z,23.41
2022-09-04T08:24:57.774Z,23.56
2022-09-04T08:25:57.905Z,23.69
2022-09-04T08:26:58.054Z,23.53
2022-09-04T08:27:58.151Z,23.38
2022-09-04T08:28:58.294Z,23.23
2022-09-04T08:29:58.438Z,23.16
2022-09-04T08:30:58.627Z,23.23
2022-09-04T08:31:58.692Z,23.49
2022-09-04T08:32:58.819Z,23.71
2022-09-04T08:33:58.958Z,23.77
2022-09-04T08:34:59.099Z,23.89
2022-09-04T08:35:59.272Z,23.90
2022-09-04T08:36:59.378Z,23.92
2022-09-04T08:37:59.459Z,24.06
2022-09-04T08:39:02.422Z,24.05
2022-09-04T08:40:00.813Z,24.00
2022-09-04T08:40:59.838Z,24.16
2022-09-04T08:41:59.971Z,24.34
2022-09-04T08:43:00.120Z,24.59
2022-09-04T08:44:00.248Z,24.80
2022-09-04T08:45:00.483Z,25.04
2022-09-04T08:46:00.589Z,25.16
2022-09-04T08:47:00.685Z,25.02
2022-09-04T08:48:00.831Z,25.04
2022-09-04T08:49:00.989Z,25.12
2022-09-04T08:50:01.061Z,25.12
2022-09-04T08:51:01.221Z,25.36
2022-09-04T08:52:01.333Z,25.57
2022-09-04T08:53:03.863Z,25.39
2022-09-04T08:54:01.573Z,25.57
2022-09-04T08:55:01.687Z,25.74
2022-09-04T08:56:01.821Z,26.00
2022-09-04T08:57:01.979Z,26.32
2022-09-04T08:58:02.073Z,26.51
2022-09-04T08:59:02.212Z,26.73
2022-09-04T09:00:02.373Z,26.96
2022-09-04T09:01:02.521Z,27.15
2022-09-04T09:02:02.563Z,27.24
2022-09-04T09:03:02.704Z,27.16
2022-09-04T09:04:02.840Z,26.97
2022-09-04T09:05:03.023Z,27.03
2022-09-04T09:06:03.094Z,26.96
2022-09-04T09:07:03.257Z,26.94
2022-09-04T09:08:03.360Z,27.15
2022-09-04T09:09:03.502Z,27.33
2022-09-04T09:10:03.651Z,27.24
2022-09-04T09:11:03.777Z,26.98
2022-09-04T09:12:03.910Z,27.03
2022-09-04T09:13:04.082Z,27.18
2022-09-04T09:14:04.155Z,27.31
2022-09-04T09:15:04.314Z,27.49
2022-09-04T09:16:04.402Z,27.81
2022-09-04T09:17:04.582Z,28.01
2022-09-04T09:18:04.662Z,28.14
2022-09-04T09:19:04.803Z,28.30
2022-09-04T09:20:04.944Z,28.40
2022-09-04T09:21:05.082Z,28.43
2022-09-04T09:22:05.204Z,28.65
2022-09-04T09:23:05.356Z,28.24
2022-09-04T09:24:05.487Z,28.39
2022-09-04T09:25:05.634Z,28.42
2022-09-04T09:26:05.722Z,28.72
2022-09-04T09:27:05.868Z,28.46
2022-09-04T09:28:05.996Z,28.21
2022-09-04T09:29:06.186Z,28.60
2022-09-04T09:30:06.244Z,28.95
2022-09-04T09:31:06.421Z,29.15
2022-09-04T09:32:06.504Z,29.33
2022-09-04T09:33:06.643Z,29.15
2022-09-04T09:34:06.771Z,29.12
2022-09-04T09:35:06.936Z,28.74
2022-09-04T09:36:07.018Z,29.03
2022-09-04T09:37:07.144Z,29.27
2022-09-04T09:38:07.272Z,29.52
2022-09-04T09:39:07.445Z,29.84
2022-09-04T09:40:07.596Z,30.19
2022-09-04T09:41:07.644Z,30.60
2022-09-04T09:42:07.780Z,30.68
2022-09-04T09:43:07.925Z,30.60
2022-09-04T09:44:08.034Z,29.88
2022-09-04T09:45:08.198Z,29.95
2022-09-04T09:46:08.301Z,30.22
2022-09-04T09:47:08.397Z,30.00
2022-09-04T09:48:11.534Z,29.92
2022-09-04T09:49:13.885Z,30.10
2022-09-04T09:50:09.768Z,30.18
2022-09-04T09:51:08.895Z,30.29
2022-09-04T09:52:09.027Z,30.21
2022-09-04T09:53:09.212Z,29.76
2022-09-04T09:54:09.292Z,30.26
2022-09-04T09:55:09.428Z,30.79
2022-09-04T09:56:09.566Z,30.86
2022-09-04T09:57:09.724Z,30.86
2022-09-04T09:58:09.829Z,30.63
2022-09-04T09:59:09.967Z,30.45
2022-09-04T10:00:10.117Z,30.63
2022-09-04T10:01:10.269Z,30.34
2022-09-04T10:02:10.446Z,30.23
2022-09-04T10:03:10.535Z,30.96
2022-09-04T10:04:10.668Z,31.65
2022-09-04T10:05:10.830Z,31.87
2022-09-04T10:06:10.960Z,31.56
2022-09-04T10:07:11.036Z,31.30
2022-09-04T10:08:11.168Z,31.20
2022-09-04T10:09:11.338Z,30.93
2022-09-04T10:10:11.451Z,31.01
2022-09-04T10:11:11.617Z,31.09
2022-09-04T10:12:11.697Z,31.40
2022-09-04T10:13:11.886Z,31.84
2022-09-04T10:14:11.979Z,31.94
2022-09-04T10:15:12.097Z,31.98
2022-09-04T10:16:12.234Z,31.95
2022-09-04T10:17:12.378Z,32.14
2022-09-04T10:18:12.459Z,32.28
2022-09-04T10:19:12.609Z,32.65
2022-09-04T10:20:12.697Z,32.35
2022-09-04T10:21:12.840Z,32.61
2022-09-04T10:22:13.011Z,32.65
2022-09-04T10:23:14.122Z,33.09
2022-09-04T10:24:13.244Z,33.29
2022-09-04T10:25:13.352Z,33.86
2022-09-04T10:26:13.472Z,33.33
2022-09-04T10:27:13.690Z,33.29
2022-09-04T10:28:13.738Z,33.79
2022-09-04T10:29:13.880Z,34.33
2022-09-04T10:30:14.033Z,33.92
2022-09-04T10:31:14.216Z,34.00
2022-09-04T10:32:14.411Z,33.82
2022-09-04T10:33:14.493Z,34.18
2022-09-04T10:34:14.588Z,34.16
2022-09-04T10:35:14.694Z,34.34
2022-09-04T10:36:14.850Z,34.64
2022-09-04T10:37:14.952Z,35.02
2022-09-04T10:38:15.054Z,34.55
2022-09-04T10:39:15.192Z,34.49
2022-09-04T10:40:15.319Z,34.71
2022-09-04T10:41:15.623Z,35.02
2022-09-04T10:42:15.623Z,35.34
2022-09-04T10:43:15.720Z,35.84
2022-09-04T10:44:15.836Z,36.38
2022-09-04T10:45:15.981Z,36.65
2022-09-04T10:46:23.228Z,37.01
2022-09-04T10:47:17.249Z,36.82
2022-09-04T10:48:16.400Z,36.31
2022-09-04T10:49:16.534Z,35.58
2022-09-04T10:50:16.627Z,35.50
2022-09-04T10:51:16.722Z,35.85
2022-09-04T10:52:16.882Z,36.37
2022-09-04T10:53:17.012Z,36.49
2022-09-04T10:54:17.101Z,35.96
2022-09-04T10:55:17.224Z,36.35
2022-09-04T10:56:17.375Z,36.62
2022-09-04T10:57:17.460Z,36.84
2022-09-04T10:58:17.581Z,36.86
2022-09-04T10:59:17.811Z,36.79
2022-09-04T11:00:17.854Z,36.15
2022-09-04T11:01:17.998Z,34.80
2022-09-04T11:02:18.129Z,35.36
2022-09-04T11:03:18.304Z,35.76
2022-09-04T11:04:18.463Z,35.87
2022-09-04T11:05:18.442Z,35.58
2022-09-04T11:06:18.808Z,35.54
2022-09-04T11:07:18.722Z,34.36
2022-09-04T11:08:18.883Z,33.24
2022-09-04T11:09:18.966Z,31.90
2022-09-04T11:10:19.113Z,30.45
2022-09-04T11:11:19.288Z,30.97
2022-09-04T11:12:19.375Z,32.35
2022-09-04T11:13:19.527Z,33.26
2022-09-04T11:14:19.614Z,33.17
2022-09-04T11:15:19.756Z,32.65
2022-09-04T11:16:20.020Z,32.12
2022-09-04T11:17:20.071Z,31.90
2022-09-04T11:18:20.163Z,31.68
2022-09-04T11:19:20.284Z,31.27
2022-09-04T11:20:20.387Z,31.03
2022-09-04T11:21:20.526Z,30.67
2022-09-04T11:22:20.666Z,30.01
2022-09-04T11:23:20.836Z,29.70
2022-09-04T11:24:20.916Z,29.52
2022-09-04T11:25:21.056Z,29.60
2022-09-04T11:26:21.196Z,30.56
2022-09-04T11:27:21.282Z,31.32
2022-09-04T11:28:21.443Z,32.59
2022-09-04T11:29:21.556Z,33.31
2022-09-04T11:30:21.699Z,34.06
2022-09-04T11:31:21.882Z,34.88
2022-09-04T11:32:21.975Z,35.62
2022-09-04T11:33:22.117Z,35.59
2022-09-04T11:34:22.304Z,35.21
2022-09-04T11:35:22.375Z,35.89
2022-09-04T11:36:22.535Z,36.21
2022-09-04T11:37:22.645Z,36.71
2022-09-04T11:38:22.785Z,37.01
2022-09-04T11:39:22.997Z,37.66
2022-09-04T11:40:23.067Z,36.11
2022-09-04T11:41:23.217Z,34.55
2022-09-04T11:42:23.357Z,34.05
2022-09-04T11:43:23.497Z,34.93
2022-09-04T11:44:23.648Z,35.89
2022-09-04T11:45:23.833Z,36.53
2022-09-04T11:46:23.898Z,36.83
2022-09-04T11:47:24.768Z,36.44
2022-09-04T11:48:24.192Z,35.91
2022-09-04T11:49:24.320Z,34.90
2022-09-04T11:50:24.436Z,34.76
2022-09-04T11:51:24.527Z,34.05
2022-09-04T11:52:24.669Z,34.23
2022-09-04T11:53:24.941Z,33.53
2022-09-04T11:54:24.979Z,34.38
2022-09-04T11:55:25.057Z,35.49
2022-09-04T11:56:25.206Z,35.98
2022-09-04T11:57:25.313Z,36.93
2022-09-04T11:58:25.457Z,37.20
2022-09-04T11:59:25.620Z,37.01
2022-09-04T12:00:25.732Z,37.31
2022-09-04T12:01:25.934Z,37.82
2022-09-04T12:02:26.040Z,37.65
2022-09-04T12:03:26.210Z,37.85
2022-09-04T12:04:26.259Z,38.10
2022-09-04T12:05:26.362Z,38.49
2022-09-04T12:06:26.498Z,39.12
2022-09-04T12:07:26.580Z,39.07
2022-09-04T12:08:26.739Z,38.97
2022-09-04T12:09:26.839Z,39.07
2022-09-04T12:10:27.001Z,38.98
2022-09-04T12:11:27.108Z,39.00
2022-09-04T12:12:27.229Z,38.86
2022-09-04T12:13:27.723Z,38.92
2022-09-04T12:14:27.479Z,37.93
2022-09-04T12:15:27.620Z,37.49
2022-09-04T12:16:27.759Z,38.30
2022-09-04T12:17:27.807Z,38.53
2022-09-04T12:18:27.958Z,37.24
2022-09-04T12:19:28.093Z,36.15
2022-09-04T12:20:28.249Z,35.37
2022-09-04T12:21:28.377Z,34.81
2022-09-04T12:22:28.480Z,34.15
2022-09-04T12:23:28.610Z,33.28
2022-09-04T12:24:28.763Z,33.50
2022-09-04T12:25:28.908Z,33.59
2022-09-04T12:26:29.040Z,32.88
2022-09-04T12:27:29.150Z,32.44
2022-09-04T12:28:29.306Z,32.32
2022-09-04T12:29:29.408Z,32.07
2022-09-04T12:30:29.569Z,32.02
2022-09-04T12:31:29.688Z,31.99
2022-09-04T12:32:29.792Z,32.09
2022-09-04T12:33:29.921Z,31.85
2022-09-04T12:34:30.075Z,31.45
2022-09-04T12:35:32.001Z,31.34
2022-09-04T12:36:30.411Z,31.23
2022-09-04T12:37:30.441Z,31.04
2022-09-04T12:38:30.642Z,30.85
2022-09-04T12:39:30.784Z,30.57
2022-09-04T12:40:30.865Z,30.34
2022-09-04T12:41:30.957Z,30.28
2022-09-04T12:42:31.097Z,30.44
2022-09-04T12:43:31.233Z,30.67
2022-09-04T12:44:31.381Z,30.66
2022-09-04T12:45:31.586Z,30.68
2022-09-04T12:46:31.610Z,30.75
2022-09-04T12:47:31.752Z,30.68
2022-09-04T12:48:31.912Z,30.67
2022-09-04T12:49:32.023Z,30.68
2022-09-04T12:50:32.145Z,30.76
2022-09-04T12:51:32.252Z,30.83
2022-09-04T12:52:32.393Z,30.85
2022-09-04T12:53:32.543Z,30.90
2022-09-04T12:54:32.683Z,30.98
2022-09-04T12:55:35.873Z,30.91